TNCB/BON METAR and TAF weather

Enter ICAO airport designator
Station Type Date Time Source
TNCB METAR 2021/08/04 18:55 UTC NOAA

TNCB 041855Z 10017KT 070V140 CAVOK 30/23 Q1014


Station Type Date Time Source
TNCB Decoded METAR 2021/08/04 18:55 UTC NOAA

Flamingo Airport, Bonaire, Netherlands Antilles (TNCB) 12-09N 068-17W 7M
Aug 04, 2021 - 02:55 PM EDT / 2021.08.04 1855 UTC
Wind: from the E (100 degrees) at 20 MPH (17 KT) (direction variable):0
Visibility: greater than 7 mile(s):0
Temperature: 86 F (30 C)
Heat index: 93.4 F (34.1 C):1
Dew Point: 73 F (23 C)
Relative Humidity: 66%
Pressure (altimeter): 29.94 in. Hg (1014 hPa)
ob: TNCB 041855Z 10017KT 070V140 CAVOK 30/23 Q1014
cycle: 19

Station Type Date Time Source
TNCB TAF 2021/08/04 18:27 UTC NOAA

TAF TAF TNCB 041651Z 0418/0524 10014KT 9999 SCT018

Example: see airport list